sensor_id;sensor_type;location;lat;lon;timestamp;P1;durP1;ratioP1;P2;durP2;ratioP2
5912;SDS011;2982;42.684;23.356;2024-01-11T00:00:11;31.63;;;14.03;;
5912;SDS011;2982;42.684;23.356;2024-01-11T00:02:45;25.87;;;13.73;;
5912;SDS011;2982;42.684;23.356;2024-01-11T00:05:43;23.80;;;11.83;;
5912;SDS011;2982;42.684;23.356;2024-01-11T00:08:43;26.67;;;12.97;;
5912;SDS011;2982;42.684;23.356;2024-01-11T00:11:53;29.57;;;13.67;;
5912;SDS011;2982;42.684;23.356;2024-01-11T00:15:08;27.10;;;13.40;;
5912;SDS011;2982;42.684;23.356;2024-01-11T00:18:21;24.00;;;12.50;;
5912;SDS011;2982;42.684;23.356;2024-01-11T00:21:21;34.10;;;15.27;;
5912;SDS011;2982;42.684;23.356;2024-01-11T00:24:27;24.57;;;14.77;;
5912;SDS011;2982;42.684;23.356;2024-01-11T00:26:54;31.37;;;13.80;;
5912;SDS011;2982;42.684;23.356;2024-01-11T00:29:56;31.33;;;16.07;;
5912;SDS011;2982;42.684;23.356;2024-01-11T00:32:47;28.67;;;13.27;;
5912;SDS011;2982;42.684;23.356;2024-01-11T00:35:53;27.60;;;14.10;;
5912;SDS011;2982;42.684;23.356;2024-01-11T00:38:24;29.57;;;15.00;;
5912;SDS011;2982;42.684;23.356;2024-01-11T00:41:13;29.80;;;15.20;;
5912;SDS011;2982;42.684;23.356;2024-01-11T00:44:03;37.33;;;14.13;;
5912;SDS011;2982;42.684;23.356;2024-01-11T00:47:10;24.73;;;13.37;;
5912;SDS011;2982;42.684;23.356;2024-01-11T00:49:38;33.13;;;14.90;;
5912;SDS011;2982;42.684;23.356;2024-01-11T00:52:44;30.53;;;15.03;;
5912;SDS011;2982;42.684;23.356;2024-01-11T00:55:43;36.80;;;15.63;;
5912;SDS011;2982;42.684;23.356;2024-01-11T00:58:52;32.53;;;14.87;;
5912;SDS011;2982;42.684;23.356;2024-01-11T01:02:04;31.33;;;14.93;;
5912;SDS011;2982;42.684;23.356;2024-01-11T01:04:49;23.53;;;13.90;;
5912;SDS011;2982;42.684;23.356;2024-01-11T01:07:22;26.87;;;14.97;;
5912;SDS011;2982;42.684;23.356;2024-01-11T01:10:07;35.37;;;15.53;;
5912;SDS011;2982;42.684;23.356;2024-01-11T01:12:56;27.53;;;13.80;;
5912;SDS011;2982;42.684;23.356;2024-01-11T01:16:04;25.00;;;13.67;;
5912;SDS011;2982;42.684;23.356;2024-01-11T01:47:27;28.37;;;11.00;;
5912;SDS011;2982;42.684;23.356;2024-01-11T01:50:16;28.13;;;13.40;;
5912;SDS011;2982;42.684;23.356;2024-01-11T01:52:43;64.27;;;24.63;;
5912;SDS011;2982;42.684;23.356;2024-01-11T01:55:09;29.53;;;12.77;;
5912;SDS011;2982;42.684;23.356;2024-01-11T01:57:55;37.50;;;17.57;;
5912;SDS011;2982;42.684;23.356;2024-01-11T02:00:23;47.70;;;20.83;;
5912;SDS011;2982;42.684;23.356;2024-01-11T02:02:55;49.50;;;20.50;;
5912;SDS011;2982;42.684;23.356;2024-01-11T02:05:51;47.03;;;21.67;;
5912;SDS011;2982;42.684;23.356;2024-01-11T02:08:48;33.67;;;16.33;;
5912;SDS011;2982;42.684;23.356;2024-01-11T02:11:47;52.40;;;19.80;;
5912;SDS011;2982;42.684;23.356;2024-01-11T02:14:40;39.87;;;19.03;;
5912;SDS011;2982;42.684;23.356;2024-01-11T02:17:12;44.97;;;19.37;;
5912;SDS011;2982;42.684;23.356;2024-01-11T02:20:12;39.03;;;17.43;;
5912;SDS011;2982;42.684;23.356;2024-01-11T02:22:41;32.37;;;16.60;;
5912;SDS011;2982;42.684;23.356;2024-01-11T02:25:37;36.03;;;18.70;;
5912;SDS011;2982;42.684;23.356;2024-01-11T02:28:08;35.20;;;16.83;;
5912;SDS011;2982;42.684;23.356;2024-01-11T02:30:35;33.73;;;16.47;;
5912;SDS011;2982;42.684;23.356;2024-01-11T02:33:00;26.27;;;14.17;;
5912;SDS011;2982;42.684;23.356;2024-01-11T02:35:30;27.70;;;13.13;;
5912;SDS011;2982;42.684;23.356;2024-01-11T02:37:58;28.20;;;11.03;;
5912;SDS011;2982;42.684;23.356;2024-01-11T02:40:31;20.33;;;11.37;;
5912;SDS011;2982;42.684;23.356;2024-01-11T02:43:06;16.77;;;10.83;;
5912;SDS011;2982;42.684;23.356;2024-01-11T02:45:33;20.53;;;11.67;;
5912;SDS011;2982;42.684;23.356;2024-01-11T02:47:59;11.87;;;7.77;;
5912;SDS011;2982;42.684;23.356;2024-01-11T02:50:33;11.43;;;7.70;;
5912;SDS011;2982;42.684;23.356;2024-01-11T02:53:01;12.43;;;7.50;;
5912;SDS011;2982;42.684;23.356;2024-01-11T02:55:39;11.53;;;7.47;;
5912;SDS011;2982;42.684;23.356;2024-01-11T02:58:06;12.07;;;8.47;;
5912;SDS011;2982;42.684;23.356;2024-01-11T03:00:44;15.67;;;7.97;;
5912;SDS011;2982;42.684;23.356;2024-01-11T03:03:40;14.27;;;8.30;;
5912;SDS011;2982;42.684;23.356;2024-01-11T03:06:08;19.87;;;10.23;;
5912;SDS011;2982;42.684;23.356;2024-01-11T03:08:39;17.13;;;9.23;;
5912;SDS011;2982;42.684;23.356;2024-01-11T03:11:25;20.17;;;9.93;;
5912;SDS011;2982;42.684;23.356;2024-01-11T03:14:11;17.60;;;8.87;;
5912;SDS011;2982;42.684;23.356;2024-01-11T03:16:51;20.50;;;9.73;;
5912;SDS011;2982;42.684;23.356;2024-01-11T03:19:25;14.07;;;8.77;;
5912;SDS011;2982;42.684;23.356;2024-01-11T03:21:52;18.23;;;8.80;;
5912;SDS011;2982;42.684;23.356;2024-01-11T03:24:41;14.73;;;8.77;;
5912;SDS011;2982;42.684;23.356;2024-01-11T03:27:11;17.00;;;9.07;;
5912;SDS011;2982;42.684;23.356;2024-01-11T03:29:39;16.67;;;9.43;;
5912;SDS011;2982;42.684;23.356;2024-01-11T03:32:46;16.77;;;8.43;;
5912;SDS011;2982;42.684;23.356;2024-01-11T03:35:11;26.00;;;8.50;;
5912;SDS011;2982;42.684;23.356;2024-01-11T03:37:40;18.90;;;9.13;;
5912;SDS011;2982;42.684;23.356;2024-01-11T03:40:27;10.80;;;6.87;;
5912;SDS011;2982;42.684;23.356;2024-01-11T03:42:57;12.37;;;8.43;;
5912;SDS011;2982;42.684;23.356;2024-01-11T03:45:31;21.03;;;9.80;;
5912;SDS011;2982;42.684;23.356;2024-01-11T03:48:20;18.47;;;9.40;;
5912;SDS011;2982;42.684;23.356;2024-01-11T03:50:52;19.20;;;9.43;;
5912;SDS011;2982;42.684;23.356;2024-01-11T03:53:28;20.37;;;8.70;;
5912;SDS011;2982;42.684;23.356;2024-01-11T03:55:53;15.70;;;8.47;;
5912;SDS011;2982;42.684;23.356;2024-01-11T03:58:20;19.80;;;9.03;;
5912;SDS011;2982;42.684;23.356;2024-01-11T04:00:45;17.13;;;9.40;;
5912;SDS011;2982;42.684;23.356;2024-01-11T04:03:12;15.03;;;9.23;;
5912;SDS011;2982;42.684;23.356;2024-01-11T04:05:53;14.80;;;8.13;;
5912;SDS011;2982;42.684;23.356;2024-01-11T04:08:45;16.03;;;9.87;;
5912;SDS011;2982;42.684;23.356;2024-01-11T04:11:16;18.80;;;8.60;;
5912;SDS011;2982;42.684;23.356;2024-01-11T04:13:43;19.23;;;9.23;;
5912;SDS011;2982;42.684;23.356;2024-01-11T04:16:21;15.27;;;8.17;;
5912;SDS011;2982;42.684;23.356;2024-01-11T04:18:58;28.83;;;10.13;;
5912;SDS011;2982;42.684;23.356;2024-01-11T04:21:24;21.77;;;10.50;;
5912;SDS011;2982;42.684;23.356;2024-01-11T04:23:53;22.00;;;11.03;;
5912;SDS011;2982;42.684;23.356;2024-01-11T04:26:19;25.73;;;10.93;;
5912;SDS011;2982;42.684;23.356;2024-01-11T04:28:45;17.10;;;9.27;;
5912;SDS011;2982;42.684;23.356;2024-01-11T04:31:14;26.30;;;12.03;;
5912;SDS011;2982;42.684;23.356;2024-01-11T04:33:40;22.37;;;10.47;;
5912;SDS011;2982;42.684;23.356;2024-01-11T04:36:22;20.43;;;10.30;;
5912;SDS011;2982;42.684;23.356;2024-01-11T04:38:52;24.90;;;11.07;;
5912;SDS011;2982;42.684;23.356;2024-01-11T04:41:27;19.20;;;11.40;;
5912;SDS011;2982;42.684;23.356;2024-01-11T04:43:53;23.87;;;12.77;;
5912;SDS011;2982;42.684;23.356;2024-01-11T04:46:25;18.33;;;12.10;;
5912;SDS011;2982;42.684;23.356;2024-01-11T04:48:53;19.77;;;9.60;;
5912;SDS011;2982;42.684;23.356;2024-01-11T04:51:22;24.33;;;11.87;;
5912;SDS011;2982;42.684;23.356;2024-01-11T04:54:08;17.50;;;11.03;;
5912;SDS011;2982;42.684;23.356;2024-01-11T04:56:36;23.47;;;10.77;;
5912;SDS011;2982;42.684;23.356;2024-01-11T04:59:10;25.73;;;11.07;;
5912;SDS011;2982;42.684;23.356;2024-01-11T05:02:03;19.80;;;11.90;;
5912;SDS011;2982;42.684;23.356;2024-01-11T05:04:29;21.87;;;11.47;;
5912;SDS011;2982;42.684;23.356;2024-01-11T05:07:26;17.00;;;10.57;;
5912;SDS011;2982;42.684;23.356;2024-01-11T05:10:13;16.87;;;9.87;;
5912;SDS011;2982;42.684;23.356;2024-01-11T05:13:02;27.57;;;12.97;;
5912;SDS011;2982;42.684;23.356;2024-01-11T05:15:57;22.13;;;11.13;;
5912;SDS011;2982;42.684;23.356;2024-01-11T05:18:56;16.77;;;10.90;;
5912;SDS011;2982;42.684;23.356;2024-01-11T05:22:07;22.73;;;11.67;;
5912;SDS011;2982;42.684;23.356;2024-01-11T05:25:18;19.63;;;12.00;;
5912;SDS011;2982;42.684;23.356;2024-01-11T05:27:48;26.80;;;13.23;;
5912;SDS011;2982;42.684;23.356;2024-01-11T05:30:51;29.03;;;12.80;;
5912;SDS011;2982;42.684;23.356;2024-01-11T05:33:55;21.87;;;13.30;;
5912;SDS011;2982;42.684;23.356;2024-01-11T05:36:41;24.70;;;13.57;;
5912;SDS011;2982;42.684;23.356;2024-01-11T05:39:18;24.87;;;13.37;;
5912;SDS011;2982;42.684;23.356;2024-01-11T05:41:44;28.07;;;13.77;;
5912;SDS011;2982;42.684;23.356;2024-01-11T05:44:11;27.27;;;13.33;;
5912;SDS011;2982;42.684;23.356;2024-01-11T05:47:00;21.10;;;12.57;;
5912;SDS011;2982;42.684;23.356;2024-01-11T05:49:57;30.27;;;14.70;;
5912;SDS011;2982;42.684;23.356;2024-01-11T05:52:42;29.67;;;14.13;;
5912;SDS011;2982;42.684;23.356;2024-01-11T05:55:10;21.90;;;13.83;;
5912;SDS011;2982;42.684;23.356;2024-01-11T05:57:56;22.33;;;13.23;;
5912;SDS011;2982;42.684;23.356;2024-01-11T06:00:24;28.30;;;14.37;;
5912;SDS011;2982;42.684;23.356;2024-01-11T06:03:25;29.93;;;15.83;;
5912;SDS011;2982;42.684;23.356;2024-01-11T06:22:16;41.00;;;17.37;;
5912;SDS011;2982;42.684;23.356;2024-01-11T06:25:20;39.00;;;16.43;;
5912;SDS011;2982;42.684;23.356;2024-01-11T06:28:04;48.77;;;20.33;;
5912;SDS011;2982;42.684;23.356;2024-01-11T07:30:21;53.10;;;24.40;;
5912;SDS011;2982;42.684;23.356;2024-01-11T07:33:10;26.63;;;14.07;;
5912;SDS011;2982;42.684;23.356;2024-01-11T07:36:05;49.63;;;24.80;;
5912;SDS011;2982;42.684;23.356;2024-01-11T07:38:33;66.73;;;31.17;;
5912;SDS011;2982;42.684;23.356;2024-01-11T07:41:34;52.40;;;27.03;;
5912;SDS011;2982;42.684;23.356;2024-01-11T07:44:19;51.40;;;27.07;;
5912;SDS011;2982;42.684;23.356;2024-01-11T07:47:40;53.67;;;26.47;;
5912;SDS011;2982;42.684;23.356;2024-01-11T07:50:19;35.37;;;18.50;;
5912;SDS011;2982;42.684;23.356;2024-01-11T07:53:13;36.23;;;17.87;;
5912;SDS011;2982;42.684;23.356;2024-01-11T07:56:04;47.40;;;23.63;;
5912;SDS011;2982;42.684;23.356;2024-01-11T07:58:53;52.83;;;21.33;;
5912;SDS011;2982;42.684;23.356;2024-01-11T08:01:42;24.97;;;12.93;;
5912;SDS011;2982;42.684;23.356;2024-01-11T08:12:12;36.03;;;18.40;;
5912;SDS011;2982;42.684;23.356;2024-01-11T08:15:03;27.33;;;15.23;;
5912;SDS011;2982;42.684;23.356;2024-01-11T08:17:50;35.07;;;17.20;;
5912;SDS011;2982;42.684;23.356;2024-01-11T08:20:15;27.17;;;17.03;;
5912;SDS011;2982;42.684;23.356;2024-01-11T08:23:04;33.57;;;19.13;;
5912;SDS011;2982;42.684;23.356;2024-01-11T08:25:50;34.80;;;17.73;;
5912;SDS011;2982;42.684;23.356;2024-01-11T08:28:45;29.03;;;16.90;;
5912;SDS011;2982;42.684;23.356;2024-01-11T08:31:33;38.17;;;19.40;;
5912;SDS011;2982;42.684;23.356;2024-01-11T08:36:34;39.13;;;20.07;;
5912;SDS011;2982;42.684;23.356;2024-01-11T08:39:30;35.00;;;18.07;;
5912;SDS011;2982;42.684;23.356;2024-01-11T08:41:58;40.10;;;20.57;;
5912;SDS011;2982;42.684;23.356;2024-01-11T08:44:49;35.90;;;21.00;;
5912;SDS011;2982;42.684;23.356;2024-01-11T08:47:15;37.33;;;21.40;;
5912;SDS011;2982;42.684;23.356;2024-01-11T08:49:42;37.43;;;21.67;;
5912;SDS011;2982;42.684;23.356;2024-01-11T08:52:08;42.80;;;21.33;;
5912;SDS011;2982;42.684;23.356;2024-01-11T08:54:34;40.37;;;20.83;;
5912;SDS011;2982;42.684;23.356;2024-01-11T08:57:01;36.47;;;21.03;;
5912;SDS011;2982;42.684;23.356;2024-01-11T08:59:48;37.17;;;20.33;;
5912;SDS011;2982;42.684;23.356;2024-01-11T09:02:54;44.70;;;21.00;;
5912;SDS011;2982;42.684;23.356;2024-01-11T09:05:24;35.60;;;19.23;;
5912;SDS011;2982;42.684;23.356;2024-01-11T09:07:52;36.13;;;20.90;;
5912;SDS011;2982;42.684;23.356;2024-01-11T09:10:19;40.97;;;19.47;;
5912;SDS011;2982;42.684;23.356;2024-01-11T09:13:18;34.07;;;18.50;;
5912;SDS011;2982;42.684;23.356;2024-01-11T09:15:53;39.67;;;20.97;;
5912;SDS011;2982;42.684;23.356;2024-01-11T09:18:24;38.50;;;20.90;;
5912;SDS011;2982;42.684;23.356;2024-01-11T09:20:59;35.50;;;18.37;;
5912;SDS011;2982;42.684;23.356;2024-01-11T09:23:34;34.90;;;17.87;;
5912;SDS011;2982;42.684;23.356;2024-01-11T09:26:01;33.50;;;18.50;;
5912;SDS011;2982;42.684;23.356;2024-01-11T09:28:52;39.03;;;19.70;;
5912;SDS011;2982;42.684;23.356;2024-01-11T09:32:00;35.97;;;18.43;;
5912;SDS011;2982;42.684;23.356;2024-01-11T09:34:26;27.93;;;16.10;;
5912;SDS011;2982;42.684;23.356;2024-01-11T09:37:04;35.33;;;18.70;;
5912;SDS011;2982;42.684;23.356;2024-01-11T09:39:34;37.77;;;18.40;;
5912;SDS011;2982;42.684;23.356;2024-01-11T09:42:08;37.30;;;17.03;;
5912;SDS011;2982;42.684;23.356;2024-01-11T09:45:10;28.53;;;17.00;;
5912;SDS011;2982;42.684;23.356;2024-01-11T09:47:39;29.13;;;16.37;;
5912;SDS011;2982;42.684;23.356;2024-01-11T09:50:24;31.03;;;18.30;;
5912;SDS011;2982;42.684;23.356;2024-01-11T09:53:13;33.17;;;17.83;;
5912;SDS011;2982;42.684;23.356;2024-01-11T09:55:53;32.20;;;19.27;;
5912;SDS011;2982;42.684;23.356;2024-01-11T09:58:48;41.63;;;20.67;;
5912;SDS011;2982;42.684;23.356;2024-01-11T10:01:33;30.40;;;18.10;;
5912;SDS011;2982;42.684;23.356;2024-01-11T10:04:01;28.20;;;17.87;;
5912;SDS011;2982;42.684;23.356;2024-01-11T10:06:32;30.00;;;18.13;;
5912;SDS011;2982;42.684;23.356;2024-01-11T10:09:03;35.47;;;20.47;;
5912;SDS011;2982;42.684;23.356;2024-01-11T10:11:29;37.80;;;20.03;;
5912;SDS011;2982;42.684;23.356;2024-01-11T10:14:18;34.73;;;19.33;;
5912;SDS011;2982;42.684;23.356;2024-01-11T10:17:06;34.87;;;18.03;;
5912;SDS011;2982;42.684;23.356;2024-01-11T10:19:32;30.03;;;19.17;;
5912;SDS011;2982;42.684;23.356;2024-01-11T10:21:59;35.37;;;21.00;;
5912;SDS011;2982;42.684;23.356;2024-01-11T10:24:25;32.07;;;20.07;;
5912;SDS011;2982;42.684;23.356;2024-01-11T10:26:59;47.83;;;21.27;;
5912;SDS011;2982;42.684;23.356;2024-01-11T10:29:28;42.57;;;20.53;;
5912;SDS011;2982;42.684;23.356;2024-01-11T10:31:57;42.07;;;21.07;;
5912;SDS011;2982;42.684;23.356;2024-01-11T10:34:43;48.93;;;25.13;;
5912;SDS011;2982;42.684;23.356;2024-01-11T10:37:08;51.20;;;24.60;;
5912;SDS011;2982;42.684;23.356;2024-01-11T10:39:40;51.27;;;21.90;;
5912;SDS011;2982;42.684;23.356;2024-01-11T10:42:08;40.80;;;23.57;;
5912;SDS011;2982;42.684;23.356;2024-01-11T10:44:35;47.93;;;24.17;;
5912;SDS011;2982;42.684;23.356;2024-01-11T10:47:08;48.13;;;22.10;;
5912;SDS011;2982;42.684;23.356;2024-01-11T10:49:36;41.60;;;21.73;;
5912;SDS011;2982;42.684;23.356;2024-01-11T10:52:05;38.33;;;19.50;;
5912;SDS011;2982;42.684;23.356;2024-01-11T10:54:34;35.93;;;20.80;;
5912;SDS011;2982;42.684;23.356;2024-01-11T10:57:01;45.67;;;21.07;;
5912;SDS011;2982;42.684;23.356;2024-01-11T10:59:27;39.40;;;22.17;;
5912;SDS011;2982;42.684;23.356;2024-01-11T11:02:00;52.40;;;23.93;;
5912;SDS011;2982;42.684;23.356;2024-01-11T11:04:29;41.63;;;22.40;;
5912;SDS011;2982;42.684;23.356;2024-01-11T11:06:57;40.93;;;22.57;;
5912;SDS011;2982;42.684;23.356;2024-01-11T11:09:37;37.87;;;22.67;;
5912;SDS011;2982;42.684;23.356;2024-01-11T11:12:19;41.17;;;22.23;;
5912;SDS011;2982;42.684;23.356;2024-01-11T11:14:46;38.07;;;21.63;;
5912;SDS011;2982;42.684;23.356;2024-01-11T11:17:14;40.40;;;23.83;;
5912;SDS011;2982;42.684;23.356;2024-01-11T11:19:41;48.87;;;25.23;;
5912;SDS011;2982;42.684;23.356;2024-01-11T11:22:07;41.20;;;23.30;;
5912;SDS011;2982;42.684;23.356;2024-01-11T11:24:33;49.43;;;23.50;;
5912;SDS011;2982;42.684;23.356;2024-01-11T11:30:24;49.30;;;24.83;;
5912;SDS011;2982;42.684;23.356;2024-01-11T11:41:15;45.33;;;23.80;;
5912;SDS011;2982;42.684;23.356;2024-01-11T11:44:01;46.90;;;22.97;;
5912;SDS011;2982;42.684;23.356;2024-01-11T11:46:49;40.07;;;21.70;;
5912;SDS011;2982;42.684;23.356;2024-01-11T11:50:09;33.23;;;20.10;;
5912;SDS011;2982;42.684;23.356;2024-01-11T11:52:55;48.00;;;23.53;;
5912;SDS011;2982;42.684;23.356;2024-01-11T11:55:51;43.17;;;21.37;;
5912;SDS011;2982;42.684;23.356;2024-01-11T11:58:37;39.87;;;21.50;;
5912;SDS011;2982;42.684;23.356;2024-01-11T12:01:04;43.17;;;20.83;;
5912;SDS011;2982;42.684;23.356;2024-01-11T12:03:35;39.80;;;22.40;;
5912;SDS011;2982;42.684;23.356;2024-01-11T12:06:20;33.57;;;21.40;;
5912;SDS011;2982;42.684;23.356;2024-01-11T12:09:27;38.67;;;18.93;;
5912;SDS011;2982;42.684;23.356;2024-01-11T12:11:58;35.20;;;19.80;;
5912;SDS011;2982;42.684;23.356;2024-01-11T12:14:26;51.13;;;29.00;;
5912;SDS011;2982;42.684;23.356;2024-01-11T12:17:15;36.53;;;22.83;;
5912;SDS011;2982;42.684;23.356;2024-01-11T12:19:58;40.10;;;23.70;;
5912;SDS011;2982;42.684;23.356;2024-01-11T12:22:25;30.07;;;17.97;;
5912;SDS011;2982;42.684;23.356;2024-01-11T12:24:53;12.53;;;9.63;;
5912;SDS011;2982;42.684;23.356;2024-01-11T12:28:02;10.87;;;7.17;;
5912;SDS011;2982;42.684;23.356;2024-01-11T12:30:39;11.73;;;8.43;;
5912;SDS011;2982;42.684;23.356;2024-01-11T12:33:06;20.07;;;8.57;;
5912;SDS011;2982;42.684;23.356;2024-01-11T12:35:36;13.73;;;10.07;;
5912;SDS011;2982;42.684;23.356;2024-01-11T12:38:08;14.63;;;9.50;;
5912;SDS011;2982;42.684;23.356;2024-01-11T12:45:51;10.93;;;7.93;;
5912;SDS011;2982;42.684;23.356;2024-01-11T12:48:17;12.83;;;7.70;;
5912;SDS011;2982;42.684;23.356;2024-01-11T12:50:47;8.57;;;4.97;;
5912;SDS011;2982;42.684;23.356;2024-01-11T12:53:38;7.03;;;6.33;;
5912;SDS011;2982;42.684;23.356;2024-01-11T12:56:05;4.97;;;4.03;;
5912;SDS011;2982;42.684;23.356;2024-01-11T12:58:32;4.73;;;4.33;;
5912;SDS011;2982;42.684;23.356;2024-01-11T13:00:57;4.87;;;3.87;;
5912;SDS011;2982;42.684;23.356;2024-01-11T13:03:25;4.70;;;3.83;;
5912;SDS011;2982;42.684;23.356;2024-01-11T13:05:53;3.53;;;3.23;;
5912;SDS011;2982;42.684;23.356;2024-01-11T13:08:21;3.83;;;3.50;;
5912;SDS011;2982;42.684;23.356;2024-01-11T13:10:51;4.03;;;3.63;;
5912;SDS011;2982;42.684;23.356;2024-01-11T13:13:16;5.40;;;3.03;;
5912;SDS011;2982;42.684;23.356;2024-01-11T13:15:44;4.10;;;2.90;;
5912;SDS011;2982;42.684;23.356;2024-01-11T13:18:10;3.33;;;3.03;;
5912;SDS011;2982;42.684;23.356;2024-01-11T13:20:36;4.27;;;3.10;;
5912;SDS011;2982;42.684;23.356;2024-01-11T13:23:18;6.80;;;5.00;;
5912;SDS011;2982;42.684;23.356;2024-01-11T13:26:15;6.63;;;3.50;;
5912;SDS011;2982;42.684;23.356;2024-01-11T13:29:29;5.17;;;3.33;;
5912;SDS011;2982;42.684;23.356;2024-01-11T13:32:26;2.87;;;2.60;;
5912;SDS011;2982;42.684;23.356;2024-01-11T13:35:14;3.07;;;2.33;;
5912;SDS011;2982;42.684;23.356;2024-01-11T13:37:42;3.17;;;2.30;;
5912;SDS011;2982;42.684;23.356;2024-01-11T13:40:09;2.77;;;2.50;;
5912;SDS011;2982;42.684;23.356;2024-01-11T13:42:36;2.97;;;2.70;;
5912;SDS011;2982;42.684;23.356;2024-01-11T13:45:07;3.70;;;2.53;;
5912;SDS011;2982;42.684;23.356;2024-01-11T13:47:34;5.03;;;2.20;;
5912;SDS011;2982;42.684;23.356;2024-01-11T13:50:08;3.23;;;2.50;;
5912;SDS011;2982;42.684;23.356;2024-01-11T13:52:52;2.63;;;2.30;;
5912;SDS011;2982;42.684;23.356;2024-01-11T13:55:18;4.57;;;2.30;;
5912;SDS011;2982;42.684;23.356;2024-01-11T14:03:20;2.03;;;1.90;;
5912;SDS011;2982;42.684;23.356;2024-01-11T14:06:26;3.23;;;2.27;;
5912;SDS011;2982;42.684;23.356;2024-01-11T14:08:54;4.53;;;2.93;;
5912;SDS011;2982;42.684;23.356;2024-01-11T14:11:35;2.80;;;2.60;;
5912;SDS011;2982;42.684;23.356;2024-01-11T14:14:21;2.40;;;2.20;;
5912;SDS011;2982;42.684;23.356;2024-01-11T14:16:49;3.43;;;3.13;;
5912;SDS011;2982;42.684;23.356;2024-01-11T14:19:20;3.63;;;2.97;;
5912;SDS011;2982;42.684;23.356;2024-01-11T14:22:29;8.13;;;3.10;;
5912;SDS011;2982;42.684;23.356;2024-01-11T14:24:57;5.47;;;3.30;;
5912;SDS011;2982;42.684;23.356;2024-01-11T14:27:44;4.57;;;3.30;;
5912;SDS011;2982;42.684;23.356;2024-01-11T14:30:20;3.73;;;3.43;;
5912;SDS011;2982;42.684;23.356;2024-01-11T14:32:47;6.07;;;3.57;;
5912;SDS011;2982;42.684;23.356;2024-01-11T14:35:32;4.30;;;3.53;;
5912;SDS011;2982;42.684;23.356;2024-01-11T14:38:19;3.40;;;3.10;;
5912;SDS011;2982;42.684;23.356;2024-01-11T14:41:05;4.80;;;3.53;;
5912;SDS011;2982;42.684;23.356;2024-01-11T14:43:36;5.33;;;3.07;;
5912;SDS011;2982;42.684;23.356;2024-01-11T14:46:21;7.03;;;4.60;;
5912;SDS011;2982;42.684;23.356;2024-01-11T14:48:52;5.37;;;3.57;;
5912;SDS011;2982;42.684;23.356;2024-01-11T14:51:17;4.77;;;3.83;;
5912;SDS011;2982;42.684;23.356;2024-01-11T14:54:04;5.20;;;3.80;;
5912;SDS011;2982;42.684;23.356;2024-01-11T14:56:54;5.73;;;4.43;;
5912;SDS011;2982;42.684;23.356;2024-01-11T15:00:02;7.67;;;3.77;;
5912;SDS011;2982;42.684;23.356;2024-01-11T15:02:31;4.47;;;4.03;;
5912;SDS011;2982;42.684;23.356;2024-01-11T16:25:46;8.63;;;7.40;;
5912;SDS011;2982;42.684;23.356;2024-01-11T16:28:59;8.13;;;6.97;;
5912;SDS011;2982;42.684;23.356;2024-01-11T16:34:48;7.00;;;6.23;;
5912;SDS011;2982;42.684;23.356;2024-01-11T16:37:22;8.77;;;4.90;;
5912;SDS011;2982;42.684;23.356;2024-01-11T16:40:20;4.87;;;4.00;;
5912;SDS011;2982;42.684;23.356;2024-01-11T16:43:10;4.93;;;4.20;;
5912;SDS011;2982;42.684;23.356;2024-01-11T16:45:54;6.90;;;5.80;;
5912;SDS011;2982;42.684;23.356;2024-01-11T16:59:25;5.93;;;4.43;;
5912;SDS011;2982;42.684;23.356;2024-01-11T17:02:48;4.57;;;4.13;;
5912;SDS011;2982;42.684;23.356;2024-01-11T17:05:41;5.73;;;4.97;;
5912;SDS011;2982;42.684;23.356;2024-01-11T17:08:24;6.17;;;4.07;;
5912;SDS011;2982;42.684;23.356;2024-01-11T17:18:37;5.53;;;4.33;;
5912;SDS011;2982;42.684;23.356;2024-01-11T17:31:53;10.00;;;6.00;;
5912;SDS011;2982;42.684;23.356;2024-01-11T17:34:34;5.53;;;4.20;;
5912;SDS011;2982;42.684;23.356;2024-01-11T23:21:17;17.07;;;9.47;;
5912;SDS011;2982;42.684;23.356;2024-01-11T23:32:06;15.37;;;8.50;;
5912;SDS011;2982;42.684;23.356;2024-01-11T23:34:53;15.43;;;8.23;;
5912;SDS011;2982;42.684;23.356;2024-01-11T23:37:21;7.90;;;7.03;;
5912;SDS011;2982;42.684;23.356;2024-01-11T23:39:50;15.23;;;6.80;;
5912;SDS011;2982;42.684;23.356;2024-01-11T23:42:28;16.90;;;9.33;;
5912;SDS011;2982;42.684;23.356;2024-01-11T23:45:26;10.40;;;6.80;;
5912;SDS011;2982;42.684;23.356;2024-01-11T23:48:12;17.87;;;9.30;;
5912;SDS011;2982;42.684;23.356;2024-01-11T23:51:00;15.30;;;8.63;;
5912;SDS011;2982;42.684;23.356;2024-01-11T23:53:46;10.40;;;6.40;;
5912;SDS011;2982;42.684;23.356;2024-01-11T23:56:14;17.00;;;9.80;;
5912;SDS011;2982;42.684;23.356;2024-01-11T23:59:02;19.33;;;9.77;;
